sensor_id;sensor_type;location;lat;lon;timestamp;temperature;humidity
27314;DHT22;14800;48.174;9.798;2023-06-24T00:00:59;18.50;68.20
27314;DHT22;14800;48.174;9.798;2023-06-24T00:03:25;18.50;68.10
27314;DHT22;14800;48.174;9.798;2023-06-24T00:05:50;18.50;68.10
27314;DHT22;14800;48.174;9.798;2023-06-24T00:08:16;18.50;68.00
27314;DHT22;14800;48.174;9.798;2023-06-24T00:10:48;18.50;68.20
27314;DHT22;14800;48.174;9.798;2023-06-24T00:13:17;18.50;68.00
27314;DHT22;14800;48.174;9.798;2023-06-24T00:15:43;18.50;68.30
27314;DHT22;14800;48.174;9.798;2023-06-24T00:18:09;18.50;68.10
27314;DHT22;14800;48.174;9.798;2023-06-24T00:20:35;18.50;68.20
27314;DHT22;14800;48.174;9.798;2023-06-24T00:23:01;18.50;68.00
27314;DHT22;14800;48.174;9.798;2023-06-24T00:25:27;18.50;68.20
27314;DHT22;14800;48.174;9.798;2023-06-24T00:27:52;18.50;68.50
27314;DHT22;14800;48.174;9.798;2023-06-24T00:30:18;18.50;69.50
27314;DHT22;14800;48.174;9.798;2023-06-24T00:32:44;18.60;69.00
27314;DHT22;14800;48.174;9.798;2023-06-24T00:35:09;18.60;69.00
27314;DHT22;14800;48.174;9.798;2023-06-24T00:37:37;18.60;69.00
27314;DHT22;14800;48.174;9.798;2023-06-24T00:40:05;18.60;69.20
27314;DHT22;14800;48.174;9.798;2023-06-24T00:42:31;18.60;69.30
27314;DHT22;14800;48.174;9.798;2023-06-24T00:44:57;18.70;69.20
27314;DHT22;14800;48.174;9.798;2023-06-24T00:47:23;18.70;69.10
27314;DHT22;14800;48.174;9.798;2023-06-24T00:49:49;18.70;68.70
27314;DHT22;14800;48.174;9.798;2023-06-24T00:52:14;18.60;68.50
27314;DHT22;14800;48.174;9.798;2023-06-24T00:54:42;18.50;68.60
27314;DHT22;14800;48.174;9.798;2023-06-24T00:57:07;18.50;69.00
27314;DHT22;14800;48.174;9.798;2023-06-24T00:59:34;18.40;69.20
27314;DHT22;14800;48.174;9.798;2023-06-24T01:02:01;18.40;69.50
27314;DHT22;14800;48.174;9.798;2023-06-24T01:04:27;18.30;69.70
27314;DHT22;14800;48.174;9.798;2023-06-24T01:06:53;18.20;70.00
27314;DHT22;14800;48.174;9.798;2023-06-24T01:09:20;18.10;70.20
27314;DHT22;14800;48.174;9.798;2023-06-24T01:11:46;18.00;70.30
27314;DHT22;14800;48.174;9.798;2023-06-24T01:14:11;18.00;70.60
27314;DHT22;14800;48.174;9.798;2023-06-24T01:19:44;17.90;71.90
27314;DHT22;14800;48.174;9.798;2023-06-24T01:32:53;17.80;71.80
27314;DHT22;14800;48.174;9.798;2023-06-24T01:35:23;17.80;72.50
27314;DHT22;14800;48.174;9.798;2023-06-24T01:37:51;17.80;72.00
27314;DHT22;14800;48.174;9.798;2023-06-24T01:40:31;17.80;72.10
27314;DHT22;14800;48.174;9.798;2023-06-24T01:43:00;17.80;72.50
27314;DHT22;14800;48.174;9.798;2023-06-24T01:45:29;17.80;72.30
27314;DHT22;14800;48.174;9.798;2023-06-24T01:48:09;17.80;72.30
27314;DHT22;14800;48.174;9.798;2023-06-24T01:50:39;17.80;73.20
27314;DHT22;14800;48.174;9.798;2023-06-24T01:53:08;17.80;72.60
27314;DHT22;14800;48.174;9.798;2023-06-24T01:55:36;17.70;72.40
27314;DHT22;14800;48.174;9.798;2023-06-24T01:58:04;17.70;72.80
27314;DHT22;14800;48.174;9.798;2023-06-24T02:00:32;17.70;72.70
27314;DHT22;14800;48.174;9.798;2023-06-24T02:02:59;17.60;72.80
27314;DHT22;14800;48.174;9.798;2023-06-24T02:05:25;17.60;73.00
27314;DHT22;14800;48.174;9.798;2023-06-24T02:07:52;17.60;73.20
27314;DHT22;14800;48.174;9.798;2023-06-24T02:10:20;17.60;73.30
27314;DHT22;14800;48.174;9.798;2023-06-24T02:12:50;17.60;73.50
27314;DHT22;14800;48.174;9.798;2023-06-24T02:15:17;17.60;73.50
27314;DHT22;14800;48.174;9.798;2023-06-24T02:17:44;17.50;73.50
27314;DHT22;14800;48.174;9.798;2023-06-24T02:20:11;17.50;73.80
27314;DHT22;14800;48.174;9.798;2023-06-24T02:22:38;17.50;74.00
27314;DHT22;14800;48.174;9.798;2023-06-24T02:25:06;17.40;74.00
27314;DHT22;14800;48.174;9.798;2023-06-24T02:27:32;17.40;75.10
27314;DHT22;14800;48.174;9.798;2023-06-24T02:30:00;17.50;74.20
27314;DHT22;14800;48.174;9.798;2023-06-24T02:32:26;17.50;74.20
27314;DHT22;14800;48.174;9.798;2023-06-24T02:34:51;17.50;74.20
27314;DHT22;14800;48.174;9.798;2023-06-24T02:37:17;17.60;74.00
27314;DHT22;14800;48.174;9.798;2023-06-24T02:39:43;17.60;73.90
27314;DHT22;14800;48.174;9.798;2023-06-24T02:42:12;17.60;73.90
27314;DHT22;14800;48.174;9.798;2023-06-24T02:44:41;17.60;74.00
27314;DHT22;14800;48.174;9.798;2023-06-24T02:47:09;17.70;74.00
27314;DHT22;14800;48.174;9.798;2023-06-24T02:49:37;17.70;73.70
27314;DHT22;14800;48.174;9.798;2023-06-24T02:52:04;17.70;73.50
27314;DHT22;14800;48.174;9.798;2023-06-24T02:54:30;17.60;73.30
27314;DHT22;14800;48.174;9.798;2023-06-24T02:56:56;17.50;73.30
27314;DHT22;14800;48.174;9.798;2023-06-24T02:59:24;17.50;73.50
27314;DHT22;14800;48.174;9.798;2023-06-24T03:01:53;17.40;73.50
27314;DHT22;14800;48.174;9.798;2023-06-24T03:04:20;17.40;73.90
27314;DHT22;14800;48.174;9.798;2023-06-24T03:06:46;17.40;74.00
27314;DHT22;14800;48.174;9.798;2023-06-24T03:09:13;17.40;74.00
27314;DHT22;14800;48.174;9.798;2023-06-24T03:11:44;17.40;74.90
27314;DHT22;14800;48.174;9.798;2023-06-24T03:14:10;17.40;74.20
27314;DHT22;14800;48.174;9.798;2023-06-24T03:16:36;17.40;74.10
27314;DHT22;14800;48.174;9.798;2023-06-24T03:19:04;17.40;74.10
27314;DHT22;14800;48.174;9.798;2023-06-24T03:21:30;17.40;74.20
27314;DHT22;14800;48.174;9.798;2023-06-24T03:23:55;17.30;74.90
27314;DHT22;14800;48.174;9.798;2023-06-24T03:26:22;17.30;74.20
27314;DHT22;14800;48.174;9.798;2023-06-24T03:28:47;17.20;74.40
27314;DHT22;14800;48.174;9.798;2023-06-24T03:31:14;17.20;74.50
27314;DHT22;14800;48.174;9.798;2023-06-24T03:33:41;17.10;74.60
27314;DHT22;14800;48.174;9.798;2023-06-24T03:36:10;17.10;74.70
27314;DHT22;14800;48.174;9.798;2023-06-24T03:38:36;17.00;75.00
27314;DHT22;14800;48.174;9.798;2023-06-24T03:41:02;17.00;75.20
27314;DHT22;14800;48.174;9.798;2023-06-24T03:43:27;17.00;75.40
27314;DHT22;14800;48.174;9.798;2023-06-24T03:45:53;16.90;75.50
27314;DHT22;14800;48.174;9.798;2023-06-24T03:48:18;16.90;75.80
27314;DHT22;14800;48.174;9.798;2023-06-24T03:50:44;16.90;75.90
27314;DHT22;14800;48.174;9.798;2023-06-24T03:53:10;16.90;75.80
27314;DHT22;14800;48.174;9.798;2023-06-24T03:55:35;16.80;75.80
27314;DHT22;14800;48.174;9.798;2023-06-24T03:58:01;16.80;76.80
27314;DHT22;14800;48.174;9.798;2023-06-24T04:00:26;16.80;76.10
27314;DHT22;14800;48.174;9.798;2023-06-24T04:02:52;16.80;76.30
27314;DHT22;14800;48.174;9.798;2023-06-24T04:05:20;16.80;76.50
27314;DHT22;14800;48.174;9.798;2023-06-24T04:07:47;16.80;76.70
27314;DHT22;14800;48.174;9.798;2023-06-24T04:10:12;16.70;76.80
27314;DHT22;14800;48.174;9.798;2023-06-24T04:12:38;16.70;76.80
27314;DHT22;14800;48.174;9.798;2023-06-24T04:15:05;16.70;77.90
27314;DHT22;14800;48.174;9.798;2023-06-24T04:17:30;16.70;77.30
27314;DHT22;14800;48.174;9.798;2023-06-24T04:19:56;16.70;77.40
27314;DHT22;14800;48.174;9.798;2023-06-24T04:22:23;16.70;77.50
27314;DHT22;14800;48.174;9.798;2023-06-24T04:24:48;16.60;77.40
27314;DHT22;14800;48.174;9.798;2023-06-24T04:27:14;16.60;77.60
27314;DHT22;14800;48.174;9.798;2023-06-24T04:29:39;16.60;78.70
27314;DHT22;14800;48.174;9.798;2023-06-24T04:32:05;16.70;78.00
27314;DHT22;14800;48.174;9.798;2023-06-24T04:34:31;16.70;78.00
27314;DHT22;14800;48.174;9.798;2023-06-24T04:36:58;16.70;78.10
27314;DHT22;14800;48.174;9.798;2023-06-24T04:39:23;16.70;78.00
27314;DHT22;14800;48.174;9.798;2023-06-24T04:41:49;16.70;78.10
27314;DHT22;14800;48.174;9.798;2023-06-24T04:44:14;16.70;78.20
27314;DHT22;14800;48.174;9.798;2023-06-24T04:46:40;16.70;78.40
27314;DHT22;14800;48.174;9.798;2023-06-24T04:49:06;16.70;78.40
27314;DHT22;14800;48.174;9.798;2023-06-24T04:51:32;16.80;78.40
27314;DHT22;14800;48.174;9.798;2023-06-24T04:53:58;16.80;78.70
27314;DHT22;14800;48.174;9.798;2023-06-24T04:56:23;16.80;78.80
27314;DHT22;14800;48.174;9.798;2023-06-24T04:58:50;16.80;78.80
27314;DHT22;14800;48.174;9.798;2023-06-24T05:01:15;16.80;79.80
27314;DHT22;14800;48.174;9.798;2023-06-24T05:03:41;16.80;79.10
27314;DHT22;14800;48.174;9.798;2023-06-24T05:06:07;16.90;79.40
27314;DHT22;14800;48.174;9.798;2023-06-24T05:08:32;16.90;79.60
27314;DHT22;14800;48.174;9.798;2023-06-24T05:10:58;17.00;79.90
27314;DHT22;14800;48.174;9.798;2023-06-24T05:13:24;17.00;80.00
27314;DHT22;14800;48.174;9.798;2023-06-24T05:15:49;17.00;80.30
27314;DHT22;14800;48.174;9.798;2023-06-24T05:18:15;17.10;80.50
27314;DHT22;14800;48.174;9.798;2023-06-24T05:20:40;17.10;80.50
27314;DHT22;14800;48.174;9.798;2023-06-24T05:23:06;17.20;80.50
27314;DHT22;14800;48.174;9.798;2023-06-24T05:25:32;17.30;80.30
27314;DHT22;14800;48.174;9.798;2023-06-24T05:27:57;17.40;80.00
27314;DHT22;14800;48.174;9.798;2023-06-24T05:30:23;17.40;80.00
27314;DHT22;14800;48.174;9.798;2023-06-24T05:32:48;17.50;80.20
27314;DHT22;14800;48.174;9.798;2023-06-24T05:35:14;17.50;80.30
27314;DHT22;14800;48.174;9.798;2023-06-24T05:37:40;17.60;81.00
27314;DHT22;14800;48.174;9.798;2023-06-24T05:40:06;17.70;80.10
27314;DHT22;14800;48.174;9.798;2023-06-24T05:42:32;17.70;80.10
27314;DHT22;14800;48.174;9.798;2023-06-24T05:44:59;17.80;79.70
27314;DHT22;14800;48.174;9.798;2023-06-24T05:47:24;17.90;79.30
27314;DHT22;14800;48.174;9.798;2023-06-24T05:49:50;17.90;79.20
27314;DHT22;14800;48.174;9.798;2023-06-24T05:52:15;17.90;79.10
27314;DHT22;14800;48.174;9.798;2023-06-24T05:54:41;18.10;78.80
27314;DHT22;14800;48.174;9.798;2023-06-24T05:57:06;18.10;78.20
27314;DHT22;14800;48.174;9.798;2023-06-24T05:59:33;18.10;78.00
27314;DHT22;14800;48.174;9.798;2023-06-24T06:01:58;18.20;77.90
27314;DHT22;14800;48.174;9.798;2023-06-24T06:04:24;18.30;77.70
27314;DHT22;14800;48.174;9.798;2023-06-24T06:06:50;18.50;77.60
27314;DHT22;14800;48.174;9.798;2023-06-24T06:09:15;18.50;77.50
27314;DHT22;14800;48.174;9.798;2023-06-24T06:11:41;18.60;77.30
27314;DHT22;14800;48.174;9.798;2023-06-24T06:14:07;18.70;77.20
27314;DHT22;14800;48.174;9.798;2023-06-24T06:16:32;18.80;77.20
27314;DHT22;14800;48.174;9.798;2023-06-24T06:18:58;18.90;76.60
27314;DHT22;14800;48.174;9.798;2023-06-24T06:21:24;19.00;76.10
27314;DHT22;14800;48.174;9.798;2023-06-24T06:23:50;19.10;75.70
27314;DHT22;14800;48.174;9.798;2023-06-24T06:26:15;19.10;75.80
27314;DHT22;14800;48.174;9.798;2023-06-24T06:28:41;19.20;75.90
27314;DHT22;14800;48.174;9.798;2023-06-24T06:31:07;19.30;75.80
27314;DHT22;14800;48.174;9.798;2023-06-24T06:33:32;19.30;75.40
27314;DHT22;14800;48.174;9.798;2023-06-24T06:35:58;19.40;74.90
27314;DHT22;14800;48.174;9.798;2023-06-24T06:38:24;19.60;74.70
27314;DHT22;14800;48.174;9.798;2023-06-24T06:40:50;19.60;74.50
27314;DHT22;14800;48.174;9.798;2023-06-24T06:43:15;19.70;74.30
27314;DHT22;14800;48.174;9.798;2023-06-24T06:45:41;19.80;73.70
27314;DHT22;14800;48.174;9.798;2023-06-24T06:48:07;19.90;73.50
27314;DHT22;14800;48.174;9.798;2023-06-24T06:50:34;19.90;73.30
27314;DHT22;14800;48.174;9.798;2023-06-24T06:52:59;20.00;73.50
27314;DHT22;14800;48.174;9.798;2023-06-24T06:55:26;20.10;73.40
27314;DHT22;14800;48.174;9.798;2023-06-24T06:57:52;20.20;72.70
27314;DHT22;14800;48.174;9.798;2023-06-24T07:00:18;20.30;72.60
27314;DHT22;14800;48.174;9.798;2023-06-24T07:02:44;20.40;72.20
27314;DHT22;14800;48.174;9.798;2023-06-24T07:05:09;20.50;72.20
27314;DHT22;14800;48.174;9.798;2023-06-24T07:07:37;20.60;72.00
27314;DHT22;14800;48.174;9.798;2023-06-24T07:10:03;20.70;71.70
27314;DHT22;14800;48.174;9.798;2023-06-24T07:12:29;20.80;71.60
27314;DHT22;14800;48.174;9.798;2023-06-24T07:14:58;20.90;71.20
27314;DHT22;14800;48.174;9.798;2023-06-24T07:17:23;20.90;70.90
27314;DHT22;14800;48.174;9.798;2023-06-24T07:19:49;21.00;70.10
27314;DHT22;14800;48.174;9.798;2023-06-24T07:22:15;21.10;69.50
27314;DHT22;14800;48.174;9.798;2023-06-24T07:24:41;21.10;69.20
27314;DHT22;14800;48.174;9.798;2023-06-24T07:27:07;21.20;68.90
27314;DHT22;14800;48.174;9.798;2023-06-24T07:29:32;21.30;69.20
27314;DHT22;14800;48.174;9.798;2023-06-24T07:31:58;21.30;69.30
27314;DHT22;14800;48.174;9.798;2023-06-24T07:34:24;21.40;68.80
27314;DHT22;14800;48.174;9.798;2023-06-24T07:36:49;21.50;68.30
27314;DHT22;14800;48.174;9.798;2023-06-24T07:39:16;21.60;67.60
27314;DHT22;14800;48.174;9.798;2023-06-24T07:41:42;21.70;67.10
27314;DHT22;14800;48.174;9.798;2023-06-24T07:44:08;21.80;67.10
27314;DHT22;14800;48.174;9.798;2023-06-24T07:46:34;21.80;66.90
27314;DHT22;14800;48.174;9.798;2023-06-24T07:48:59;21.90;66.60
27314;DHT22;14800;48.174;9.798;2023-06-24T07:51:25;22.10;66.40
27314;DHT22;14800;48.174;9.798;2023-06-24T07:53:50;22.10;66.60
27314;DHT22;14800;48.174;9.798;2023-06-24T07:56:16;22.20;66.40
27314;DHT22;14800;48.174;9.798;2023-06-24T07:58:42;22.30;66.10
27314;DHT22;14800;48.174;9.798;2023-06-24T08:01:07;22.40;65.70
27314;DHT22;14800;48.174;9.798;2023-06-24T08:03:34;22.40;65.50
27314;DHT22;14800;48.174;9.798;2023-06-24T08:05:59;22.50;64.70
27314;DHT22;14800;48.174;9.798;2023-06-24T08:08:25;22.60;64.80
27314;DHT22;14800;48.174;9.798;2023-06-24T08:10:50;22.70;65.00
27314;DHT22;14800;48.174;9.798;2023-06-24T08:13:16;22.70;64.50
27314;DHT22;14800;48.174;9.798;2023-06-24T08:15:41;22.70;64.40
27314;DHT22;14800;48.174;9.798;2023-06-24T08:18:07;22.80;64.00
27314;DHT22;14800;48.174;9.798;2023-06-24T08:20:32;22.90;63.80
27314;DHT22;14800;48.174;9.798;2023-06-24T08:22:58;23.00;63.40
27314;DHT22;14800;48.174;9.798;2023-06-24T08:25:24;23.10;63.40
27314;DHT22;14800;48.174;9.798;2023-06-24T08:27:49;23.20;63.00
27314;DHT22;14800;48.174;9.798;2023-06-24T08:30:15;23.30;62.40
27314;DHT22;14800;48.174;9.798;2023-06-24T08:32:41;23.40;62.60
27314;DHT22;14800;48.174;9.798;2023-06-24T08:35:08;23.50;61.50
27314;DHT22;14800;48.174;9.798;2023-06-24T08:37:34;23.60;61.30
27314;DHT22;14800;48.174;9.798;2023-06-24T08:39:59;23.60;61.00
27314;DHT22;14800;48.174;9.798;2023-06-24T08:42:25;23.80;60.50
27314;DHT22;14800;48.174;9.798;2023-06-24T08:44:51;23.80;59.90
27314;DHT22;14800;48.174;9.798;2023-06-24T08:47:17;24.00;59.60
27314;DHT22;14800;48.174;9.798;2023-06-24T08:49:48;24.00;59.20
27314;DHT22;14800;48.174;9.798;2023-06-24T08:52:16;24.10;59.00
27314;DHT22;14800;48.174;9.798;2023-06-24T08:54:47;24.10;59.10
27314;DHT22;14800;48.174;9.798;2023-06-24T08:57:14;24.20;58.60
27314;DHT22;14800;48.174;9.798;2023-06-24T08:59:41;24.20;57.60
27314;DHT22;14800;48.174;9.798;2023-06-24T09:02:07;24.30;58.00
27314;DHT22;14800;48.174;9.798;2023-06-24T09:04:32;24.30;58.00
27314;DHT22;14800;48.174;9.798;2023-06-24T09:06:58;24.40;57.70
27314;DHT22;14800;48.174;9.798;2023-06-24T09:09:24;24.40;57.60
27314;DHT22;14800;48.174;9.798;2023-06-24T09:11:56;24.50;57.40
27314;DHT22;14800;48.174;9.798;2023-06-24T09:14:24;24.50;56.80
27314;DHT22;14800;48.174;9.798;2023-06-24T09:16:57;24.50;57.00
27314;DHT22;14800;48.174;9.798;2023-06-24T09:19:25;24.60;56.20
27314;DHT22;14800;48.174;9.798;2023-06-24T09:22:12;24.70;56.50
27314;DHT22;14800;48.174;9.798;2023-06-24T09:24:46;24.80;56.40
27314;DHT22;14800;48.174;9.798;2023-06-24T09:27:13;24.90;56.00
27314;DHT22;14800;48.174;9.798;2023-06-24T09:29:40;25.00;55.80
27314;DHT22;14800;48.174;9.798;2023-06-24T09:32:06;25.20;55.60
27314;DHT22;14800;48.174;9.798;2023-06-24T09:34:32;25.20;55.60
27314;DHT22;14800;48.174;9.798;2023-06-24T09:36:58;25.30;55.50
27314;DHT22;14800;48.174;9.798;2023-06-24T09:39:25;25.40;54.90
27314;DHT22;14800;48.174;9.798;2023-06-24T09:41:56;25.50;54.10
27314;DHT22;14800;48.174;9.798;2023-06-24T09:44:22;25.50;53.80
27314;DHT22;14800;48.174;9.798;2023-06-24T09:46:48;25.60;54.10
27314;DHT22;14800;48.174;9.798;2023-06-24T09:49:14;25.60;53.70
27314;DHT22;14800;48.174;9.798;2023-06-24T09:51:43;25.60;53.80
27314;DHT22;14800;48.174;9.798;2023-06-24T09:54:10;25.50;53.00
27314;DHT22;14800;48.174;9.798;2023-06-24T09:56:37;25.50;54.00
27314;DHT22;14800;48.174;9.798;2023-06-24T09:59:06;25.50;53.10
27314;DHT22;14800;48.174;9.798;2023-06-24T10:01:34;25.50;52.70
27314;DHT22;14800;48.174;9.798;2023-06-24T10:04:01;25.50;53.60
27314;DHT22;14800;48.174;9.798;2023-06-24T10:06:28;25.50;53.00
27314;DHT22;14800;48.174;9.798;2023-06-24T10:08:53;25.60;52.20
27314;DHT22;14800;48.174;9.798;2023-06-24T10:11:19;25.70;52.30
27314;DHT22;14800;48.174;9.798;2023-06-24T10:13:45;25.70;52.30
27314;DHT22;14800;48.174;9.798;2023-06-24T10:16:11;25.80;52.40
27314;DHT22;14800;48.174;9.798;2023-06-24T10:18:38;25.90;52.10
27314;DHT22;14800;48.174;9.798;2023-06-24T10:21:05;26.00;51.80
27314;DHT22;14800;48.174;9.798;2023-06-24T10:23:50;26.10;51.60
27314;DHT22;14800;48.174;9.798;2023-06-24T10:26:28;26.20;51.20
27314;DHT22;14800;48.174;9.798;2023-06-24T10:34:22;26.50;50.30
27314;DHT22;14800;48.174;9.798;2023-06-24T10:39:51;26.60;49.20
27314;DHT22;14800;48.174;9.798;2023-06-24T10:42:33;26.70;49.00
27314;DHT22;14800;48.174;9.798;2023-06-24T10:45:21;26.70;48.90
27314;DHT22;14800;48.174;9.798;2023-06-24T10:47:51;26.80;48.50
27314;DHT22;14800;48.174;9.798;2023-06-24T10:50:22;26.80;49.10
27314;DHT22;14800;48.174;9.798;2023-06-24T10:52:51;26.90;49.50
27314;DHT22;14800;48.174;9.798;2023-06-24T10:55:24;26.90;49.00
27314;DHT22;14800;48.174;9.798;2023-06-24T10:57:51;27.00;49.30
27314;DHT22;14800;48.174;9.798;2023-06-24T11:00:17;27.00;48.50
27314;DHT22;14800;48.174;9.798;2023-06-24T11:02:43;27.10;48.90
27314;DHT22;14800;48.174;9.798;2023-06-24T11:05:09;27.10;49.00
27314;DHT22;14800;48.174;9.798;2023-06-24T11:07:38;27.10;48.80
27314;DHT22;14800;48.174;9.798;2023-06-24T11:10:10;27.20;48.20
27314;DHT22;14800;48.174;9.798;2023-06-24T11:12:37;27.20;48.50
27314;DHT22;14800;48.174;9.798;2023-06-24T11:15:07;27.30;48.80
27314;DHT22;14800;48.174;9.798;2023-06-24T11:17:34;27.40;48.60
27314;DHT22;14800;48.174;9.798;2023-06-24T11:20:01;27.50;48.80
27314;DHT22;14800;48.174;9.798;2023-06-24T11:22:27;27.50;48.10
27314;DHT22;14800;48.174;9.798;2023-06-24T11:24:54;27.70;47.50
27314;DHT22;14800;48.174;9.798;2023-06-24T11:27:28;27.70;47.10
27314;DHT22;14800;48.174;9.798;2023-06-24T11:29:55;27.90;46.70
27314;DHT22;14800;48.174;9.798;2023-06-24T11:32:22;27.80;46.70
27314;DHT22;14800;48.174;9.798;2023-06-24T11:34:48;27.80;46.70
27314;DHT22;14800;48.174;9.798;2023-06-24T11:37:18;27.90;46.50
27314;DHT22;14800;48.174;9.798;2023-06-24T11:39:44;27.90;45.90
27314;DHT22;14800;48.174;9.798;2023-06-24T11:42:11;28.00;46.10
27314;DHT22;14800;48.174;9.798;2023-06-24T11:44:43;28.00;46.10
27314;DHT22;14800;48.174;9.798;2023-06-24T11:47:11;28.00;44.90
27314;DHT22;14800;48.174;9.798;2023-06-24T11:49:55;28.00;46.20
27314;DHT22;14800;48.174;9.798;2023-06-24T11:55:03;28.00;44.40
27314;DHT22;14800;48.174;9.798;2023-06-24T11:57:57;28.00;44.80
27314;DHT22;14800;48.174;9.798;2023-06-24T12:00:31;27.90;43.80
27314;DHT22;14800;48.174;9.798;2023-06-24T12:02:59;27.90;44.50
27314;DHT22;14800;48.174;9.798;2023-06-24T12:05:33;27.90;45.10
27314;DHT22;14800;48.174;9.798;2023-06-24T12:08:05;27.80;43.70
27314;DHT22;14800;48.174;9.798;2023-06-24T12:10:31;27.70;45.00
27314;DHT22;14800;48.174;9.798;2023-06-24T12:13:00;27.70;44.80
27314;DHT22;14800;48.174;9.798;2023-06-24T12:15:26;27.70;45.10
27314;DHT22;14800;48.174;9.798;2023-06-24T12:17:52;27.70;45.00
27314;DHT22;14800;48.174;9.798;2023-06-24T12:20:18;27.70;44.20
27314;DHT22;14800;48.174;9.798;2023-06-24T12:22:48;27.70;44.90
27314;DHT22;14800;48.174;9.798;2023-06-24T12:25:14;27.70;44.30
27314;DHT22;14800;48.174;9.798;2023-06-24T12:27:41;27.70;44.90
27314;DHT22;14800;48.174;9.798;2023-06-24T12:30:08;27.80;44.80
27314;DHT22;14800;48.174;9.798;2023-06-24T12:32:35;27.80;44.80
27314;DHT22;14800;48.174;9.798;2023-06-24T12:35:01;27.90;44.60
27314;DHT22;14800;48.174;9.798;2023-06-24T12:37:30;28.00;44.20
27314;DHT22;14800;48.174;9.798;2023-06-24T12:39:56;28.00;43.90
27314;DHT22;14800;48.174;9.798;2023-06-24T12:42:22;28.00;44.00
27314;DHT22;14800;48.174;9.798;2023-06-24T12:44:47;28.10;43.90
27314;DHT22;14800;48.174;9.798;2023-06-24T12:47:13;28.10;43.30
27314;DHT22;14800;48.174;9.798;2023-06-24T12:49:38;28.20;43.50
27314;DHT22;14800;48.174;9.798;2023-06-24T12:52:04;28.30;43.20
27314;DHT22;14800;48.174;9.798;2023-06-24T12:54:30;28.30;43.50
27314;DHT22;14800;48.174;9.798;2023-06-24T12:56:55;28.30;43.10
27314;DHT22;14800;48.174;9.798;2023-06-24T12:59:22;28.30;43.20
27314;DHT22;14800;48.174;9.798;2023-06-24T13:01:48;28.30;43.10
27314;DHT22;14800;48.174;9.798;2023-06-24T13:04:13;28.30;42.90
27314;DHT22;14800;48.174;9.798;2023-06-24T13:06:39;28.30;42.30
27314;DHT22;14800;48.174;9.798;2023-06-24T13:09:05;28.20;43.10
27314;DHT22;14800;48.174;9.798;2023-06-24T13:11:31;28.20;42.80
27314;DHT22;14800;48.174;9.798;2023-06-24T13:13:56;28.10;42.60
27314;DHT22;14800;48.174;9.798;2023-06-24T13:16:22;28.20;42.50
27314;DHT22;14800;48.174;9.798;2023-06-24T13:18:47;28.20;41.70
27314;DHT22;14800;48.174;9.798;2023-06-24T13:21:13;28.20;41.90
27314;DHT22;14800;48.174;9.798;2023-06-24T13:23:39;28.20;41.90
27314;DHT22;14800;48.174;9.798;2023-06-24T13:26:06;28.10;42.20
27314;DHT22;14800;48.174;9.798;2023-06-24T13:28:31;28.10;41.20
27314;DHT22;14800;48.174;9.798;2023-06-24T13:30:57;28.10;41.60
27314;DHT22;14800;48.174;9.798;2023-06-24T13:33:23;28.00;42.40
27314;DHT22;14800;48.174;9.798;2023-06-24T13:35:50;27.90;42.40
27314;DHT22;14800;48.174;9.798;2023-06-24T13:38:16;27.90;42.50
27314;DHT22;14800;48.174;9.798;2023-06-24T13:40:42;28.00;42.50
27314;DHT22;14800;48.174;9.798;2023-06-24T13:43:07;28.00;43.00
27314;DHT22;14800;48.174;9.798;2023-06-24T13:45:33;28.10;42.90
27314;DHT22;14800;48.174;9.798;2023-06-24T13:47:59;28.10;42.70
27314;DHT22;14800;48.174;9.798;2023-06-24T13:50:25;28.20;42.40
27314;DHT22;14800;48.174;9.798;2023-06-24T13:52:50;28.30;41.70
27314;DHT22;14800;48.174;9.798;2023-06-24T13:55:16;28.40;42.00
27314;DHT22;14800;48.174;9.798;2023-06-24T13:57:41;28.40;41.20
27314;DHT22;14800;48.174;9.798;2023-06-24T14:00:07;28.40;41.40
27314;DHT22;14800;48.174;9.798;2023-06-24T14:02:34;28.50;41.40
27314;DHT22;14800;48.174;9.798;2023-06-24T14:05:00;28.50;40.60
27314;DHT22;14800;48.174;9.798;2023-06-24T14:07:26;28.60;40.00
27314;DHT22;14800;48.174;9.798;2023-06-24T14:09:51;28.60;40.20
27314;DHT22;14800;48.174;9.798;2023-06-24T14:12:17;28.60;40.10
27314;DHT22;14800;48.174;9.798;2023-06-24T14:14:42;28.70;40.10
27314;DHT22;14800;48.174;9.798;2023-06-24T14:17:08;28.70;40.00
27314;DHT22;14800;48.174;9.798;2023-06-24T14:19:35;28.80;39.90
27314;DHT22;14800;48.174;9.798;2023-06-24T14:22:01;28.80;39.90
27314;DHT22;14800;48.174;9.798;2023-06-24T14:24:27;28.80;39.70
27314;DHT22;14800;48.174;9.798;2023-06-24T14:26:52;28.90;39.00
27314;DHT22;14800;48.174;9.798;2023-06-24T14:29:18;28.90;39.30
27314;DHT22;14800;48.174;9.798;2023-06-24T14:31:44;28.90;39.00
27314;DHT22;14800;48.174;9.798;2023-06-24T14:34:09;28.90;39.10
27314;DHT22;14800;48.174;9.798;2023-06-24T14:36:35;29.00;39.10
27314;DHT22;14800;48.174;9.798;2023-06-24T14:39:01;29.00;38.50
27314;DHT22;14800;48.174;9.798;2023-06-24T14:41:27;29.00;37.10
27314;DHT22;14800;48.174;9.798;2023-06-24T14:43:52;29.00;36.60
27314;DHT22;14800;48.174;9.798;2023-06-24T14:46:18;29.00;37.80
27314;DHT22;14800;48.174;9.798;2023-06-24T14:48:43;29.00;38.00
27314;DHT22;14800;48.174;9.798;2023-06-24T14:51:09;29.00;37.80
27314;DHT22;14800;48.174;9.798;2023-06-24T14:53:35;29.10;37.90
27314;DHT22;14800;48.174;9.798;2023-06-24T14:56:00;29.20;38.20
27314;DHT22;14800;48.174;9.798;2023-06-24T14:58:26;29.20;38.70
27314;DHT22;14800;48.174;9.798;2023-06-24T15:00:52;29.30;38.50
27314;DHT22;14800;48.174;9.798;2023-06-24T15:03:17;29.40;37.70
27314;DHT22;14800;48.174;9.798;2023-06-24T15:05:43;29.50;37.50
27314;DHT22;14800;48.174;9.798;2023-06-24T15:08:09;29.50;36.10
27314;DHT22;14800;48.174;9.798;2023-06-24T15:10:35;29.50;37.00
27314;DHT22;14800;48.174;9.798;2023-06-24T15:13:01;29.40;36.60
27314;DHT22;14800;48.174;9.798;2023-06-24T15:15:26;29.40;37.20
27314;DHT22;14800;48.174;9.798;2023-06-24T15:17:52;29.40;37.70
27314;DHT22;14800;48.174;9.798;2023-06-24T15:20:17;29.40;37.80
27314;DHT22;14800;48.174;9.798;2023-06-24T15:22:43;29.50;37.70
27314;DHT22;14800;48.174;9.798;2023-06-24T15:25:09;29.60;37.50
27314;DHT22;14800;48.174;9.798;2023-06-24T15:27:34;29.80;36.40
27314;DHT22;14800;48.174;9.798;2023-06-24T15:30:00;29.80;36.30
27314;DHT22;14800;48.174;9.798;2023-06-24T15:32:25;29.90;36.90
27314;DHT22;14800;48.174;9.798;2023-06-24T15:34:51;29.90;36.70
27314;DHT22;14800;48.174;9.798;2023-06-24T15:37:17;29.90;36.60
27314;DHT22;14800;48.174;9.798;2023-06-24T15:39:43;30.00;36.10
27314;DHT22;14800;48.174;9.798;2023-06-24T15:42:08;29.90;36.40
27314;DHT22;14800;48.174;9.798;2023-06-24T15:44:35;29.90;36.80
27314;DHT22;14800;48.174;9.798;2023-06-24T15:47:01;29.90;36.60
27314;DHT22;14800;48.174;9.798;2023-06-24T15:49:26;29.90;36.50
27314;DHT22;14800;48.174;9.798;2023-06-24T15:51:52;29.90;36.50